Time;durP1;ratioP1;P1;durP2;ratioP2;P2;SDS_P1;SDS_P2;PMS_P1;PMS_P2;Temp;Humidity;BMP_temperature;BMP_pressure;BME280_temperature;BME280_humidity;BME280_pressure;Samples;Min_cycle;Max_cycle;Signal;HPM_P1;HPM_P2
2021/04/25 00:03:03;;;;;;;10.30;7.90;;;5.30;98.50;;;6.01;100.00;101016.44;4927076;28;100354;-61
2021/04/25 00:06:14;;;;;;;12.57;8.17;;;5.20;98.60;;;6.00;100.00;101016.53;4928615;28;99901;-61
2021/04/25 00:09:25;;;;;;;13.20;7.60;;;5.00;99.10;;;5.95;100.00;101019.53;4927672;28;100872;-61
2021/04/25 00:12:37;;;;;;;10.03;7.73;;;4.90;99.60;;;6.08;100.00;101019.47;4913428;28;98812;-60
2021/04/25 00:15:49;;;;;;;12.20;7.77;;;4.80;99.90;;;5.97;100.00;101025.56;4910660;28;99907;-60
2021/04/25 00:19:04;;;;;;;12.07;8.03;;;4.70;99.90;;;5.98;100.00;101021.09;4909964;28;100039;-61
2021/04/25 00:22:15;;;;;;;15.17;8.47;;;4.60;99.90;;;5.94;100.00;101019.63;4910374;28;100103;-61
2021/04/25 00:25:26;;;;;;;10.23;8.20;;;4.50;99.90;;;5.94;100.00;101019.63;4909380;28;100143;-61
2021/04/25 00:28:37;;;;;;;12.07;8.07;;;4.50;99.90;;;5.94;100.00;101020.47;4907593;28;99836;-60
2021/04/25 00:31:49;;;;;;;13.77;8.23;;;4.40;99.90;;;6.01;100.00;101023.56;4909607;28;99735;-60
2021/04/25 00:35:02;;;;;;;14.40;9.60;;;4.30;99.90;;;5.82;100.00;101017.81;4908145;28;100119;-60
2021/04/25 00:38:13;;;;;;;14.67;9.20;;;4.30;99.90;;;5.67;100.00;101025.09;4929873;28;99882;-61
2021/04/25 00:41:24;;;;;;;19.57;11.03;;;4.20;99.90;;;5.26;100.00;101033.28;4926568;28;100046;-62
2021/04/25 00:44:36;;;;;;;15.20;10.87;;;4.10;99.90;;;5.12;100.00;101025.44;4909049;28;100115;-60
2021/04/25 00:47:47;;;;;;;16.37;11.40;;;4.10;99.90;;;5.10;100.00;101020.22;4925891;28;100318;-61
2021/04/25 00:50:59;;;;;;;12.50;8.80;;;4.00;99.90;;;5.23;100.00;101022.88;4925913;28;100232;-60
2021/04/25 00:54:11;;;;;;;13.80;9.33;;;3.90;99.90;;;5.04;100.00;101010.06;4926469;28;99983;-61
2021/04/25 00:57:22;;;;;;;14.53;9.40;;;3.80;99.90;;;4.99;100.00;101002.41;4927126;28;100287;-61
2021/04/25 01:00:35;;;;;;;13.43;8.87;;;3.70;99.90;;;4.91;100.00;101011.84;4942429;28;100950;-61
2021/04/25 01:04:01;;;;;;;14.63;9.67;;;3.60;99.90;;;4.83;100.00;101003.53;4945950;28;100163;-61
2021/04/25 01:07:13;;;;;;;16.27;10.63;;;3.60;99.90;;;4.53;100.00;101012.63;4945153;28;100385;-60
2021/04/25 01:10:25;;;;;;;14.33;9.80;;;3.50;99.90;;;4.54;100.00;101016.13;4946660;28;99823;-60
2021/04/25 01:13:36;;;;;;;16.40;9.67;;;3.40;99.90;;;4.33;100.00;101007.75;4946370;28;100744;-59
2021/04/25 01:16:56;;;;;;;16.13;11.17;;;3.30;99.90;;;4.10;100.00;101003.97;4946075;28;100348;-60
2021/04/25 01:20:08;;;;;;;15.97;10.17;;;3.20;99.90;;;4.10;100.00;101014.56;4945690;28;100093;-60
2021/04/25 01:23:32;;;;;;;13.70;9.80;;;3.20;99.90;;;4.16;100.00;101011.53;4938442;28;104754;-61
2021/04/25 01:26:43;;;;;;;13.53;9.17;;;3.10;99.90;;;3.72;100.00;101016.16;4945844;28;100045;-61
2021/04/25 01:29:54;;;;;;;10.00;7.77;;;3.00;99.90;;;3.72;100.00;101010.88;4944762;28;101113;-60
2021/04/25 01:33:07;;;;;;;11.20;8.53;;;2.90;99.90;;;4.01;100.00;101016.97;4945843;28;99824;-60
2021/04/25 01:36:19;;;;;;;11.73;7.83;;;2.90;99.90;;;4.24;100.00;101017.19;4946576;28;100105;-60
2021/04/25 01:39:31;;;;;;;10.30;7.83;;;2.90;99.90;;;4.05;100.00;101006.09;4946110;28;100921;-59
2021/04/25 01:42:43;;;;;;;12.17;9.17;;;2.90;99.90;;;3.89;100.00;101008.88;4946732;28;99792;-58
2021/04/25 01:45:54;;;;;;;9.40;7.50;;;3.00;99.90;;;3.78;100.00;101005.19;4946866;28;99917;-60
2021/04/25 01:49:20;;;;;;;10.50;7.60;;;3.00;99.90;;;3.64;100.00;101008.72;4947366;28;100436;-58
2021/04/25 01:52:31;;;;;;;9.23;6.70;;;3.10;99.90;;;3.60;100.00;101001.91;4945195;28;100779;-59
2021/04/25 01:55:46;;;;;;;11.00;6.40;;;3.10;99.90;;;3.94;100.00;101005.94;4945009;28;100244;-60
2021/04/25 01:58:57;;;;;;;10.03;7.03;;;3.10;99.90;;;3.95;100.00;101003.19;4948040;28;100233;-60
2021/04/25 02:02:24;;;;;;;9.43;7.03;;;3.10;99.90;;;3.95;100.00;100999.69;4949649;28;99953;-60
2021/04/25 02:05:36;;;;;;;12.80;8.03;;;3.20;99.90;;;3.91;100.00;101001.69;4946523;28;100165;-59
2021/04/25 02:08:47;;;;;;;10.10;6.33;;;3.10;99.90;;;3.78;100.00;101003.41;4945696;28;99980;-59
2021/04/25 02:11:59;;;;;;;9.17;6.80;;;3.10;99.90;;;3.75;100.00;101008.88;4946071;28;100005;-61
2021/04/25 02:15:24;;;;;;;11.37;7.80;;;2.90;99.90;;;3.53;100.00;101008.53;4945180;28;100114;-60
2021/04/25 02:18:41;;;;;;;10.63;8.43;;;2.80;99.90;;;3.52;100.00;101006.84;4945806;28;100513;-59
2021/04/25 02:22:20;;;;;;;12.83;9.07;;;2.70;99.90;;;3.58;100.00;101003.81;4945246;28;100270;-60
2021/04/25 02:25:32;;;;;;;9.93;7.40;;;2.60;99.90;;;3.59;100.00;101001.06;4864304;28;100422;-60
2021/04/25 02:28:45;;;;;;;13.73;7.80;;;2.40;99.90;;;3.42;100.00;100996.00;4913431;28;100017;-61
2021/04/25 02:31:57;;;;;;;11.67;7.77;;;2.40;99.90;;;3.31;100.00;100998.44;4926477;28;101132;-60
2021/04/25 02:35:08;;;;;;;10.60;7.67;;;2.30;99.90;;;3.41;100.00;100996.06;4944702;28;100466;-61
2021/04/25 02:38:20;;;;;;;9.23;6.43;;;2.30;99.90;;;3.24;100.00;100994.47;4945152;28;100057;-60
2021/04/25 02:41:43;;;;;;;7.47;6.50;;;2.30;99.90;;;3.33;100.00;100990.41;4945348;28;100096;-60
2021/04/25 02:44:55;;;;;;;8.17;6.67;;;2.30;99.90;;;3.67;100.00;101002.38;4944219;28;100462;-62
2021/04/25 02:48:07;;;;;;;8.83;7.10;;;2.30;99.90;;;3.49;100.00;100997.28;4944137;28;100547;-61
2021/04/25 02:51:18;;;;;;;10.37;6.77;;;2.40;99.90;;;3.42;100.00;100995.13;4924519;28;100073;-61
2021/04/25 02:54:54;;;;;;;7.63;6.77;;;2.50;99.90;;;3.58;100.00;101002.03;4925427;28;100136;-60
2021/04/25 02:58:05;;;;;;;8.90;6.40;;;2.60;99.90;;;3.96;100.00;101002.22;4924544;28;101537;-61
2021/04/25 03:01:17;;;;;;;11.37;7.30;;;2.60;99.90;;;3.93;100.00;101009.53;4910735;28;101265;-61
2021/04/25 03:04:28;;;;;;;7.20;6.03;;;2.70;99.90;;;3.55;100.00;101014.59;4906025;28;99831;-60
2021/04/25 03:07:39;;;;;;;10.30;6.57;;;2.90;99.90;;;3.57;100.00;101012.72;4909025;28;100226;-59
2021/04/25 03:10:52;;;;;;;8.07;6.37;;;2.90;99.90;;;3.54;100.00;101011.09;4908730;28;101415;-60
2021/04/25 03:14:20;;;;;;;9.70;6.90;;;2.90;99.90;;;3.65;100.00;101005.13;4916460;28;100147;-61
2021/04/25 03:17:33;;;;;;;9.13;6.23;;;2.90;99.90;;;3.69;100.00;101004.00;4927979;28;100191;-61
2021/04/25 03:20:45;;;;;;;8.63;6.17;;;2.90;99.90;;;3.88;100.00;101001.00;4928168;28;99985;-58
2021/04/25 03:23:56;;;;;;;8.03;5.17;;;3.00;99.90;;;4.13;100.00;101005.59;4928984;28;99982;-61
2021/04/25 03:27:07;;;;;;;7.93;6.07;;;3.10;99.90;;;4.12;100.00;100999.44;4927672;28;101182;-60
2021/04/25 03:30:19;;;;;;;9.53;6.23;;;3.30;99.90;;;4.25;100.00;101002.13;4928524;28;100109;-59
2021/04/25 03:33:32;;;;;;;10.17;6.87;;;3.30;99.90;;;4.37;100.00;101001.31;4928646;28;100165;-59
2021/04/25 03:36:55;;;;;;;6.80;5.60;;;3.40;99.90;;;4.27;100.00;101005.53;4908725;28;103651;-61
2021/04/25 03:40:07;;;;;;;9.40;5.43;;;3.50;99.90;;;4.08;100.00;101005.88;4927949;28;101008;-58
2021/04/25 03:43:19;;;;;;;8.63;5.73;;;3.60;99.90;;;4.04;100.00;101000.88;4928649;28;99874;-61
2021/04/25 03:46:30;;;;;;;10.43;6.53;;;3.60;99.90;;;4.00;100.00;101000.22;4928556;28;100171;-61
2021/04/25 03:49:42;;;;;;;7.70;6.53;;;3.60;99.90;;;4.21;100.00;100997.97;4928614;28;99946;-61
2021/04/25 03:52:53;;;;;;;11.87;6.27;;;3.60;99.90;;;4.03;100.00;100992.09;4928672;28;100052;-60
2021/04/25 03:56:17;;;;;;;6.27;5.50;;;3.60;99.90;;;4.32;100.00;101001.66;4932619;28;99425;-59
2021/04/25 03:59:28;;;;;;;7.47;5.60;;;3.70;99.90;;;4.19;100.00;101006.06;4935348;28;100258;-61
2021/04/25 04:02:39;;;;;;;8.90;6.10;;;3.70;99.90;;;4.36;100.00;101002.28;4948048;28;100542;-61
2021/04/25 04:05:52;;;;;;;9.33;6.33;;;3.70;99.90;;;4.21;100.00;100996.19;4943933;28;100309;-61
2021/04/25 04:09:03;;;;;;;10.30;6.20;;;3.70;99.90;;;4.10;100.00;100996.03;4929417;28;100067;-61
2021/04/25 04:12:15;;;;;;;11.10;6.50;;;3.70;99.90;;;4.29;100.00;100999.19;4947968;28;100252;-59
2021/04/25 04:15:27;;;;;;;14.23;6.43;;;3.70;99.90;;;4.47;100.00;100997.13;4946483;28;100177;-59
2021/04/25 04:18:38;;;;;;;10.80;7.00;;;3.70;99.90;;;4.51;100.00;101000.41;4956064;28;99039;-61
2021/04/25 04:21:50;;;;;;;8.63;6.53;;;3.80;99.90;;;4.48;100.00;101004.09;4924452;28;93591;-61
2021/04/25 04:25:02;;;;;;;8.93;5.87;;;3.80;99.90;;;4.49;100.00;101003.16;4924456;28;95753;-61
2021/04/25 04:28:13;;;;;;;9.00;6.27;;;3.80;99.90;;;4.44;100.00;101000.00;4925750;28;97000;-60
2021/04/25 04:34:52;;;;;;;9.37;6.20;;;3.80;99.90;;;4.73;100.00;101003.31;4942856;28;92816;-60
2021/04/25 04:38:16;;;;;;;10.20;5.60;;;3.80;99.90;;;4.97;100.00;101011.41;4943787;28;89613;-61
2021/04/25 04:41:28;;;;;;;10.33;6.07;;;3.90;99.90;;;4.96;100.00;101012.38;4935753;28;98122;-58
2021/04/25 04:44:39;;;;;;;7.33;5.67;;;4.00;99.90;;;4.75;100.00;101003.22;4939263;28;95354;-60
2021/04/25 04:51:49;;;;;;;9.80;5.80;;;4.10;99.90;;;4.74;100.00;101012.97;4885847;28;93043;-61
2021/04/25 05:03:03;;;;;;;8.17;5.23;;;4.30;99.90;;;5.12;100.00;101012.16;4924627;28;97818;-58
2021/04/25 05:14:08;;;;;;;10.17;5.83;;;4.50;99.90;;;5.34;100.00;101005.25;4947545;28;90945;-61
2021/04/25 05:17:28;;;;;;;8.77;6.13;;;4.60;99.90;;;5.49;100.00;101013.97;4952105;28;81322;-61
2021/04/25 05:20:54;;;;;;;10.67;6.13;;;4.70;99.90;;;5.39;100.00;101019.06;4937157;28;96037;-60
2021/04/25 05:28:21;;;;;;;6.97;5.20;;;4.90;99.90;;;5.67;100.00;101027.75;4947213;28;90990;-60
2021/04/25 05:31:56;;;;;;;6.43;4.83;;;4.90;99.90;;;5.69;100.00;101031.97;4891954;28;86518;-59
2021/04/25 05:39:23;;;;;;;7.00;5.17;;;5.10;99.90;;;6.06;100.00;101032.03;4900373;28;89528;-61
2021/04/25 05:42:47;;;;;;;6.90;4.50;;;5.20;99.90;;;5.97;100.00;101028.22;4949774;28;94372;-59
2021/04/25 05:46:11;;;;;;;8.23;5.07;;;5.30;99.90;;;6.06;100.00;101035.53;4926126;28;91897;-61
2021/04/25 05:53:33;;;;;;;10.03;5.73;;;5.50;99.90;;;5.84;100.00;101032.69;4875054;28;99715;-61
2021/04/25 06:04:07;;;;;;;35.47;18.17;;;5.60;99.90;;;6.37;100.00;101014.69;4949075;28;100078;-61
2021/04/25 06:11:28;;;;;;;5.77;4.50;;;5.70;99.90;;;6.27;100.00;101016.34;4910535;28;98444;-61
2021/04/25 06:14:50;;;;;;;6.07;4.67;;;5.80;99.90;;;6.48;100.00;101020.06;4947679;28;100309;-59
2021/04/25 06:18:07;;;;;;;9.90;6.53;;;5.80;99.90;;;6.91;100.00;101017.69;4936305;28;99473;-60
2021/04/25 06:21:21;;;;;;;8.67;6.00;;;5.90;99.90;;;6.94;100.00;101012.13;4950571;28;99689;-60
2021/04/25 06:24:38;;;;;;;5.67;3.83;;;6.10;99.90;;;7.02;100.00;101009.72;4944372;28;100187;-60
2021/04/25 06:28:19;;;;;;;6.63;4.10;;;6.20;99.90;;;6.75;100.00;101001.19;4942547;28;100004;-61
2021/04/25 06:31:30;;;;;;;5.77;4.43;;;6.30;99.90;;;7.03;100.00;101006.09;4886874;28;100293;-61
2021/04/25 06:34:42;;;;;;;8.03;4.47;;;6.40;99.90;;;7.50;100.00;101006.88;4884802;28;100176;-61
2021/04/25 06:37:55;;;;;;;5.67;4.20;;;6.50;99.90;;;7.40;100.00;101006.75;4952739;28;99805;-61
2021/04/25 06:41:06;;;;;;;6.97;3.77;;;6.70;99.90;;;7.57;100.00;101010.75;4952629;28;99914;-61
2021/04/25 06:44:17;;;;;;;6.27;4.57;;;6.80;99.90;;;7.78;100.00;101010.88;4947433;28;99936;-61
2021/04/25 06:51:20;;;;;;;7.93;4.37;;;7.10;99.90;;;8.03;100.00;101020.41;4932394;28;100220;-60
2021/04/25 06:54:51;;;;;;;9.10;4.93;;;7.20;99.90;;;8.18;100.00;101014.66;4933798;28;99796;-61
2021/04/25 06:58:15;;;;;;;6.23;4.60;;;7.30;99.60;;;8.64;100.00;101013.59;4967391;28;87577;-61
2021/04/25 07:01:26;;;;;;;7.10;4.07;;;7.50;99.50;;;8.63;100.00;101026.06;4964410;28;99590;-61
2021/04/25 07:04:39;;;;;;;7.60;4.60;;;7.70;98.90;;;8.86;100.00;101021.47;4962070;28;99313;-61
2021/04/25 07:18:37;;;;;;;6.33;4.10;;;8.50;93.10;;;9.40;100.00;101019.53;4846444;28;100370;-61
2021/04/25 07:35:16;;;;;;;4.43;2.40;;;9.30;69.10;;;9.82;100.00;101029.16;4943492;28;100107;-61
2021/04/25 07:38:28;;;;;;;6.30;2.93;;;9.50;64.20;;;9.46;100.00;101027.03;4975249;28;99441;-62
2021/04/25 07:45:25;;;;;;;3.33;2.10;;;9.70;58.20;;;9.94;100.00;101022.72;4968745;28;100184;-60
2021/04/25 07:48:49;;;;;;;3.47;1.83;;;9.90;57.30;;;9.92;100.00;101023.84;4929126;28;99740;-60
2021/04/25 07:52:12;;;;;;;3.53;1.63;;;10.10;55.80;;;9.68;100.00;101019.69;4953736;28;99865;-61
2021/04/25 07:55:30;;;;;;;3.47;2.10;;;10.20;52.80;;;10.51;100.00;101021.16;4955782;28;101448;-60
2021/04/25 07:58:41;;;;;;;2.43;2.10;;;10.20;54.40;;;10.86;100.00;101030.47;4958289;28;99339;-61
2021/04/25 08:01:53;;;;;;;4.20;1.93;;;10.50;55.20;;;11.48;100.00;101019.22;4969441;28;99212;-61
2021/04/25 08:05:05;;;;;;;3.40;1.90;;;10.90;55.00;;;11.88;89.06;101017.09;4958416;28;97851;-62
2021/04/25 08:08:16;;;;;;;2.67;1.43;;;11.30;54.00;;;12.13;73.75;101022.75;4939254;28;99923;-61
2021/04/25 08:11:27;;;;;;;4.17;1.67;;;11.80;52.20;;;12.63;66.72;101019.56;4978649;28;96291;-62
2021/04/25 08:14:56;;;;;;;1.80;1.57;;;12.20;51.50;;;11.56;70.28;101016.66;4963990;28;92950;-62
2021/04/25 08:18:08;;;;;;;2.73;1.90;;;12.60;50.00;;;12.30;71.36;101030.00;4979491;28;85083;-61
2021/04/25 08:21:19;;;;;;;4.53;2.13;;;13.00;48.80;;;13.00;74.29;101017.53;4983064;28;70376;-62
2021/04/25 08:24:31;;;;;;;3.83;2.00;;;13.40;48.80;;;13.39;70.60;101020.72;4986752;28;77044;-61
2021/04/25 08:27:42;;;;;;;2.47;1.60;;;13.80;48.50;;;13.46;55.05;101029.00;5002052;28;76748;-62
2021/04/25 08:30:54;;;;;;;3.07;1.40;;;14.30;47.70;;;12.27;45.80;101027.59;4994121;28;96072;-62
2021/04/25 08:34:36;;;;;;;2.50;1.47;;;14.60;42.80;;;12.36;53.77;101026.72;4971926;28;94417;-61
2021/04/25 08:37:47;;;;;;;4.15;1.80;;;14.60;42.30;;;12.62;49.32;101023.25;4889298;28;96804;-61
2021/04/25 08:41:11;;;;;;;4.43;1.70;;;14.70;42.90;;;11.93;58.77;101019.34;4903116;28;99912;-62
2021/04/25 08:44:27;;;;;;;2.00;1.30;;;14.70;40.60;;;11.26;54.95;101019.53;4986622;28;97548;-61
2021/04/25 08:47:41;;;;;;;3.13;1.57;;;14.40;39.80;;;11.88;51.88;101024.28;4972129;28;97973;-62
2021/04/25 08:50:55;;;;;;;3.83;1.87;;;14.20;40.10;;;12.78;57.70;101020.72;4976596;28;96117;-62
2021/04/25 08:54:07;;;;;;;2.93;1.90;;;14.30;41.30;;;13.21;55.60;101028.84;4948913;28;92862;-61
2021/04/25 08:57:18;;;;;;;3.40;1.67;;;14.50;41.80;;;12.98;55.73;101016.03;4968411;28;98515;-62
2021/04/25 09:00:31;;;;;;;3.50;2.75;;;14.70;41.80;;;13.32;61.95;101019.69;4966880;28;94904;-62
2021/04/25 09:03:43;;;;;;;1.98;1.55;;;14.90;41.40;;;12.84;57.77;101022.81;4966299;28;88371;-63
2021/04/25 09:07:12;;;;;;;3.85;2.05;;;15.00;41.10;;;13.27;59.54;101013.91;5000924;28;68252;-62
2021/04/25 09:10:24;;;;;;;3.92;1.83;;;15.10;41.20;;;13.17;59.41;101019.41;5009540;28;81231;-62
2021/04/25 09:13:42;;;;;;;4.13;2.25;;;15.10;41.10;;;13.33;62.80;101010.63;5007600;28;77807;-62
2021/04/25 09:16:55;;;;;;;3.33;1.80;;;15.10;41.30;;;12.64;63.80;101016.75;5005411;28;68663;-62
2021/04/25 09:20:21;;;;;;;2.87;2.00;;;15.20;40.60;;;13.14;64.26;101014.34;4999824;28;71138;-62
2021/04/25 09:23:47;;;;;;;3.70;2.00;;;15.10;40.40;;;12.74;59.82;101019.34;4998997;28;83292;-62
2021/04/25 09:27:04;;;;;;;5.68;2.25;;;15.10;40.60;;;12.98;59.49;101014.19;4986644;28;67536;-61
2021/04/25 09:30:31;;;;;;;4.10;1.80;;;14.90;40.80;;;13.36;61.45;101010.28;4969724;28;70775;-61
2021/04/25 09:33:48;;;;;;;3.70;1.63;;;14.90;40.90;;;12.85;55.31;101017.28;4989104;28;92242;-62
2021/04/25 09:37:00;;;;;;;3.50;1.67;;;14.90;40.60;;;12.60;53.36;101018.06;4973183;28;99793;-59
2021/04/25 09:44:06;;;;;;;1.92;1.38;;;14.80;40.40;;;13.26;54.44;101020.28;4969500;28;94860;-60
2021/04/25 09:47:38;;;;;;;2.25;1.80;;;14.90;40.40;;;13.70;55.70;101014.84;4980028;28;95926;-61
2021/04/25 09:58:04;;;;;;;3.90;1.85;;;16.20;38.90;;;15.57;44.26;100995.22;4967790;28;83451;-62
2021/04/25 10:05:23;;;;;;;2.47;1.45;;;17.40;36.60;;;13.66;56.28;101001.72;4967773;28;82522;-61
2021/04/25 10:08:49;;;;;;;3.05;1.58;;;17.60;36.30;;;13.00;57.07;101004.13;4977249;28;72129;-62
2021/04/25 10:12:01;;;;;;;2.08;1.27;;;17.40;36.30;;;13.23;64.92;101010.69;5000944;28;88752;-63
2021/04/25 10:15:13;;;;;;;3.22;2.03;;;17.00;36.50;;;13.49;54.75;101013.38;4995885;28;90878;-62
2021/04/25 10:18:24;;;;;;;4.85;2.20;;;16.60;36.90;;;12.64;55.82;101018.56;5009748;28;66017;-62
2021/04/25 10:21:36;;;;;;;3.80;1.90;;;16.40;36.90;;;13.23;56.08;101015.22;4997234;28;76763;-62
2021/04/25 10:24:48;;;;;;;3.08;2.00;;;16.20;37.00;;;13.97;53.93;101007.38;5002208;28;81183;-62
2021/04/25 10:28:05;;;;;;;3.17;1.80;;;16.20;37.30;;;15.15;49.47;101000.84;5011982;28;81091;-62
2021/04/25 10:31:18;;;;;;;2.10;1.88;;;16.60;37.80;;;15.24;48.52;100998.97;4998149;28;84463;-63
2021/04/25 10:34:35;;;;;;;2.58;1.83;;;17.20;36.80;;;14.48;46.84;101002.84;4998490;28;81842;-61
2021/04/25 10:37:54;;;;;;;3.45;1.42;;;17.60;36.30;;;14.64;46.59;101000.19;4996299;28;79540;-62
2021/04/25 10:41:40;;;;;;;2.30;1.50;;;17.90;35.70;;;14.21;52.18;101003.97;4979257;28;93036;-61
2021/04/25 10:45:04;;;;;;;2.50;1.90;;;17.90;35.10;;;13.90;52.61;101008.22;4965228;28;84518;-63
2021/04/25 10:48:37;;;;;;;4.05;1.65;;;17.70;35.60;;;14.05;59.08;101003.91;4947538;28;84779;-62
2021/04/25 10:51:59;;;;;;;2.13;1.80;;;17.40;35.80;;;14.18;59.47;101006.97;4976876;28;84607;-61
2021/04/25 10:55:46;;;;;;;3.10;1.65;;;17.20;36.40;;;13.86;59.24;101013.06;4986897;28;92070;-60
2021/04/25 10:58:58;;;;;;;3.00;1.55;;;17.00;37.10;;;14.09;56.92;101007.97;4999125;28;68921;-62
2021/04/25 11:02:15;;;;;;;2.53;1.60;;;16.80;37.30;;;14.61;55.00;101002.34;5007158;28;65477;-62
2021/04/25 11:05:59;;;;;;;1.98;1.58;;;16.90;37.30;;;14.99;52.99;100999.00;4997675;28;68701;-62
2021/04/25 11:09:19;;;;;;;2.47;2.13;;;17.30;36.80;;;14.56;52.41;101002.03;5002003;28;63942;-62
2021/04/25 11:13:09;;;;;;;3.97;1.73;;;17.50;36.70;;;14.31;60.46;101010.03;4997200;28;70543;-62
2021/04/25 11:16:42;;;;;;;2.20;1.70;;;17.60;36.60;;;14.00;60.25;101000.84;4976555;28;71631;-62
2021/04/25 11:19:55;;;;;;;3.55;2.22;;;17.60;36.20;;;14.46;59.69;101009.41;5000131;28;82840;-61
2021/04/25 11:23:13;;;;;;;3.90;1.70;;;17.30;37.00;;;13.69;62.54;101007.78;5015956;28;58375;-62
2021/04/25 11:26:35;;;;;;;2.65;2.00;;;17.40;36.70;;;13.50;69.76;101004.31;5007699;28;72792;-63
2021/04/25 11:30:01;;;;;;;3.83;2.00;;;17.20;36.40;;;13.53;59.11;100995.94;4985219;28;90279;-62
2021/04/25 11:33:18;;;;;;;4.68;1.92;;;16.90;37.00;;;13.93;61.19;100997.13;4999431;28;90727;-61
2021/04/25 11:37:01;;;;;;;3.53;2.10;;;16.80;37.50;;;13.16;62.52;100995.38;4978260;28;75823;-63
2021/04/25 11:40:14;;;;;;;5.28;2.03;;;17.10;36.60;;;14.78;55.95;100981.66;4994689;28;83524;-62
2021/04/25 11:43:27;;;;;;;3.25;2.20;;;17.60;36.80;;;14.39;62.59;100984.97;5015542;28;59774;-63
2021/04/25 11:46:54;;;;;;;5.70;4.53;;;17.90;35.70;;;14.82;57.19;100983.03;5007803;28;56064;-62
2021/04/25 11:53:31;;;;;;;5.32;2.20;;;17.70;36.00;;;13.76;64.28;100980.06;5009835;28;63705;-61
2021/04/25 11:56:49;;;;;;;3.90;2.03;;;17.50;36.20;;;13.87;69.68;100993.22;5001931;28;61921;-61
2021/04/25 12:00:15;;;;;;;3.33;2.15;;;17.30;37.00;;;13.36;69.83;100990.63;4997148;28;65801;-58
2021/04/25 12:03:28;;;;;;;3.35;2.10;;;16.90;37.30;;;12.76;72.49;100998.53;4997030;28;73221;-61
2021/04/25 12:06:39;;;;;;;3.20;2.50;;;16.40;37.10;;;12.80;75.70;101005.31;4981898;28;68196;-61
2021/04/25 12:09:53;;;;;;;3.85;2.22;;;15.90;38.10;;;12.93;81.77;101000.38;4979369;28;80912;-60
2021/04/25 12:16:45;;;;;;;5.60;2.35;;;15.30;40.30;;;13.52;80.84;100994.25;4934644;28;96499;-61
2021/04/25 12:19:58;;;;;;;3.72;2.45;;;15.20;40.60;;;12.99;74.13;101005.13;4953641;28;97903;-60
2021/04/25 12:23:09;;;;;;;7.57;2.95;;;15.20;40.50;;;12.82;89.78;101009.53;4941526;28;99758;-60
2021/04/25 12:26:25;;;;;;;4.32;2.20;;;15.00;41.10;;;12.87;99.68;101017.09;4952140;28;100584;-59
2021/04/25 12:29:54;;;;;;;3.38;2.42;;;14.90;42.10;;;13.48;92.20;101009.00;4953990;28;97243;-59
2021/04/25 12:33:11;;;;;;;4.03;2.63;;;14.90;42.90;;;13.45;84.80;101000.44;4951446;28;98240;-60
2021/04/25 12:36:31;;;;;;;3.70;2.70;;;15.20;42.30;;;12.87;85.77;101007.19;4950206;28;97856;-60
2021/04/25 12:39:48;;;;;;;2.75;2.40;;;15.20;41.60;;;12.91;86.48;101005.91;4945934;28;95177;-62
2021/04/25 12:43:05;;;;;;;5.20;2.80;;;14.90;41.50;;;12.53;87.43;101008.91;4952341;28;97384;-61
2021/04/25 12:46:31;;;;;;;4.47;2.50;;;14.60;41.60;;;12.28;87.08;101023.09;4962220;28;92664;-61
2021/04/25 12:49:50;;;;;;;4.03;2.60;;;14.30;42.10;;;12.18;100.00;101010.59;4951840;28;98528;-62
2021/04/25 12:53:03;;;;;;;4.25;2.50;;;14.00;43.80;;;12.58;100.00;101012.84;4955688;28;97657;-62
2021/04/25 12:56:20;;;;;;;2.87;2.53;;;13.90;44.40;;;11.89;88.73;101001.84;4941293;28;99871;-61
2021/04/25 12:59:55;;;;;;;4.77;2.67;;;13.80;43.30;;;12.05;91.77;100996.69;4937120;28;98730;-61
2021/04/25 13:03:55;;;;;;;3.47;2.60;;;13.40;42.80;;;12.60;90.96;101001.97;4926632;28;92615;-61
2021/04/25 13:14:37;;;;;;;5.20;2.90;;;13.50;43.60;;;13.35;98.77;100992.50;4844472;28;88990;-61
2021/04/25 13:18:14;;;;;;;4.37;2.97;;;14.00;44.40;;;12.57;100.00;101004.94;4869766;28;98112;-60
2021/04/25 13:21:25;;;;;;;4.73;3.00;;;14.10;45.60;;;12.23;100.00;101018.19;4865267;28;98253;-60
2021/04/25 13:24:37;;;;;;;6.67;2.67;;;13.90;46.20;;;11.84;100.00;101020.25;4882586;28;96582;-61
2021/04/25 13:27:50;;;;;;;6.67;3.00;;;13.60;46.60;;;11.76;100.00;101017.44;4948109;28;98425;-61
2021/04/25 13:31:05;;;;;;;5.43;3.40;;;13.30;47.00;;;11.93;100.00;101005.94;4932307;28;99503;-61
2021/04/25 13:34:16;;;;;;;6.10;3.20;;;13.00;47.60;;;11.74;100.00;101014.06;4947634;28;99547;-61
2021/04/25 13:37:27;;;;;;;4.87;2.87;;;12.90;49.00;;;11.18;100.00;101022.13;4945865;28;99994;-60
2021/04/25 13:40:45;;;;;;;3.00;2.60;;;12.70;50.60;;;10.98;100.00;101021.31;4943235;28;99872;-60
2021/04/25 13:43:57;;;;;;;4.43;2.77;;;12.40;52.30;;;11.28;100.00;101029.13;4943562;28;100502;-61
2021/04/25 13:50:37;;;;;;;4.40;2.30;;;12.10;53.60;;;11.40;100.00;101035.16;4939581;28;99942;-59
2021/04/25 13:53:48;;;;;;;3.13;2.70;;;12.10;53.70;;;11.19;100.00;101034.53;4928453;28;100022;-60
2021/04/25 13:56:59;;;;;;;3.10;2.60;;;12.10;53.40;;;11.05;100.00;101039.34;4939145;28;99819;-60
2021/04/25 14:00:13;;;;;;;3.30;2.60;;;12.10;53.40;;;10.82;100.00;101040.63;4943070;28;100187;-61
2021/04/25 14:03:24;;;;;;;3.47;2.83;;;12.00;53.40;;;10.96;100.00;101029.47;4943512;28;100311;-59
2021/04/25 14:06:35;;;;;;;3.60;2.70;;;11.90;53.60;;;11.00;100.00;101030.88;4964343;28;100057;-60
2021/04/25 14:09:46;;;;;;;4.37;3.80;;;11.90;54.00;;;11.15;100.00;101029.44;4952658;28;101914;-60
2021/04/25 14:12:57;;;;;;;4.10;3.70;;;11.90;54.00;;;11.31;100.00;101038.72;4963759;28;99778;-59
2021/04/25 14:16:10;;;;;;;4.60;3.60;;;11.90;54.00;;;11.67;100.00;101027.19;4958465;28;99596;-61
2021/04/25 14:19:27;;;;;;;5.13;3.40;;;12.00;54.00;;;11.95;100.00;101025.41;4972084;28;98801;-60
2021/04/25 14:25:56;;;;;;;3.43;2.20;;;12.50;53.10;;;12.50;100.00;101025.31;4970375;28;96733;-61
2021/04/25 14:29:07;;;;;;;3.43;2.30;;;12.90;52.90;;;13.36;100.00;101012.13;4972893;28;96520;-63
2021/04/25 14:32:20;;;;;;;2.57;2.07;;;13.50;52.20;;;13.37;100.00;101011.13;4977103;28;96412;-60
2021/04/25 14:35:32;;;;;;;4.17;2.80;;;14.20;51.30;;;13.14;100.00;101017.03;4979406;28;84152;-61
2021/04/25 14:38:46;;;;;;;5.60;2.93;;;14.60;50.20;;;12.88;100.00;101008.06;4988535;28;86648;-60
2021/04/25 14:41:58;;;;;;;4.15;2.28;;;14.80;48.50;;;13.33;100.00;101020.53;4977997;28;97271;-60
2021/04/25 14:45:09;;;;;;;3.13;2.58;;;15.10;48.70;;;13.19;100.00;101013.88;4988266;28;86705;-61
2021/04/25 14:52:05;;;;;;;3.03;2.47;;;15.40;46.40;;;12.68;100.00;101019.97;4968968;28;91476;-60
2021/04/25 14:55:16;;;;;;;3.45;2.50;;;15.20;47.00;;;12.57;100.00;101013.00;4961624;28;88063;-60
2021/04/25 14:58:27;;;;;;;3.97;2.92;;;15.00;47.40;;;12.89;100.00;101009.75;4967092;28;96112;-62
2021/04/25 15:02:12;;;;;;;3.13;2.17;;;14.80;47.60;;;12.98;100.00;101011.50;4980998;28;90980;-61
2021/04/25 15:05:30;;;;;;;4.53;2.78;;;14.80;48.10;;;12.26;100.00;101011.66;4928179;28;96369;-61
2021/04/25 15:08:42;;;;;;;5.35;4.10;;;14.70;47.80;;;11.81;100.00;101007.97;4986442;28;81744;-61
2021/04/25 15:12:06;;;;;;;6.67;4.30;;;14.30;47.90;;;11.78;100.00;101018.13;4975000;28;98390;-60
2021/04/25 15:15:18;;;;;;;4.10;3.10;;;14.00;48.50;;;11.68;100.00;101010.09;4978571;28;96228;-62
2021/04/25 15:18:42;;;;;;;5.67;3.83;;;13.70;49.00;;;11.54;100.00;101015.94;4975637;28;99798;-62
2021/04/25 15:21:54;;;;;;;4.13;3.43;;;13.40;49.50;;;11.34;100.00;101017.84;4961052;28;100020;-60
2021/04/25 15:25:19;;;;;;;4.53;3.17;;;13.20;50.10;;;11.52;100.00;101017.91;4967596;28;99529;-60
2021/04/25 15:28:30;;;;;;;4.07;2.97;;;12.90;52.00;;;11.32;100.00;101011.78;4964591;28;101385;-60
2021/04/25 15:31:41;;;;;;;3.60;2.40;;;12.70;55.10;;;10.84;100.00;101003.00;4951691;28;99913;-60
2021/04/25 15:34:52;;;;;;;3.67;2.80;;;12.40;56.60;;;10.89;100.00;101004.25;4969220;28;100160;-60